»·PEaware :: N179CZ L52-KBFL

N179CZ :: L52-KBFL

FLIGHT INFORMATION

Flight Status: Arrived
Operator: Privately registered:
United States
More flights under this callsign
Pilot: Iain S. (20216)
Aircraft: PIPER PA-28R-201 ARROW
(P28R)
More flights by this aircraft type
Origin: L52 Oceano Co
United States
Destination: KBFL Meadows
United States
More flights between these airports :: More routes between these airports
Route:
File this flight plan on PilotEdge
Remarks: L88
Altitude:
(Current/Filed)
5,500ft
Speed:
(Current/Filed)
120kts
Departed: 24-Sep-18 12:19 PM
Arrived: 24-Sep-18 01:16 PM
Distance/Time
Traveled:
80nm/0:57
Distance/Time
To Go:
Arrived

Flight Plot

Page will automatically refresh every two minutes.

Flight plan parsing failed; only flown route is shown


Map Options




Map Legend


Flown Route
Filed Route
Departure Airport
Arrival Airport
Navaid (VOR, NDB)
Fix

Horizontal Profiles

Position Reports

Time Latitude Longitude Heading Altitude Ground
Speed
24-Sep-18 12:09 35.103467 -120.624704 32 17ft 0kts
24-Sep-18 12:10 35.103467 -120.624704 32 17ft 0kts
24-Sep-18 12:11 35.103467 -120.624704 32 17ft 0kts
24-Sep-18 12:12 35.103467 -120.624704 32 17ft 0kts
24-Sep-18 12:13 35.103467 -120.624704 32 17ft 0kts
24-Sep-18 12:14 35.103467 -120.624704 32 17ft 0kts
24-Sep-18 12:15 35.103467 -120.624704 32 17ft 0kts
24-Sep-18 12:16 35.103467 -120.624704 32 17ft 0kts
24-Sep-18 12:17 35.102515 -120.625151 121 17ft 14kts
24-Sep-18 12:18 35.099607 -120.619699 118 17ft 2kts
24-Sep-18 12:19 35.099586 -120.619558 79 17ft 0kts
24-Sep-18 12:20 35.099590 -120.619532 78 17ft 2kts
24-Sep-18 12:21 35.108229 -120.632815 314 578ft 84kts
24-Sep-18 12:22 35.100601 -120.640355 113 1808ft 101kts
24-Sep-18 12:23 35.113866 -120.610451 39 2770ft 113kts
24-Sep-18 12:24 35.138478 -120.587563 36 3596ft 114kts
24-Sep-18 12:25 35.159846 -120.565631 47 4224ft 122kts
24-Sep-18 12:26 35.172848 -120.532898 65 4648ft 126kts
24-Sep-18 12:27 35.186531 -120.493325 66 5043ft 124kts
24-Sep-18 12:28 35.186249 -120.451937 95 5416ft 126kts
24-Sep-18 12:29 35.182099 -120.410827 97 5512ft 137kts
24-Sep-18 12:30 35.176981 -120.367950 94 5540ft 139kts
24-Sep-18 12:31 35.174221 -120.325379 93 5530ft 138kts
24-Sep-18 12:32 35.170638 -120.285341 96 5558ft 137kts
24-Sep-18 12:33 35.168672 -120.242898 92 5610ft 137kts
24-Sep-18 12:34 35.167710 -120.201545 91 5624ft 137kts
24-Sep-18 12:35 35.154414 -120.158673 120 5554ft 140kts
24-Sep-18 12:36 35.134552 -120.118951 121 5481ft 139kts
24-Sep-18 12:37 35.115649 -120.080042 121 5470ft 138kts
24-Sep-18 12:38 35.096487 -120.046701 129 5506ft 137kts
24-Sep-18 12:39 35.076737 -120.012568 119 5460ft 139kts
24-Sep-18 12:40 35.061044 -119.975863 114 5556ft 136kts
24-Sep-18 12:41 35.045103 -119.939173 117 5573ft 139kts
24-Sep-18 12:42 35.029068 -119.901180 116 5589ft 138kts
24-Sep-18 12:43 35.012578 -119.858724 115 5521ft 139kts
24-Sep-18 12:44 34.994673 -119.820684 120 5552ft 137kts
24-Sep-18 12:45 34.978982 -119.788093 118 5559ft 138kts
24-Sep-18 12:46 34.964077 -119.752238 118 5598ft 137kts
24-Sep-18 12:47 34.948119 -119.714834 114 5598ft 137kts
24-Sep-18 12:48 34.936949 -119.674483 102 5609ft 137kts
24-Sep-18 12:49 34.929764 -119.633180 99 5586ft 139kts
24-Sep-18 12:50 34.925871 -119.592989 89 5551ft 140kts
24-Sep-18 12:51 34.926643 -119.553832 85 5540ft 139kts
24-Sep-18 12:52 34.929332 -119.517638 82 5560ft 137kts
24-Sep-18 12:53 34.934757 -119.476233 71 5594ft 135kts
24-Sep-18 12:54 34.954945 -119.444918 35 5413ft 144kts
24-Sep-18 12:55 34.990018 -119.428256 19 5391ft 139kts
24-Sep-18 12:56 35.026099 -119.413282 16 5410ft 138kts
24-Sep-18 12:57 35.059354 -119.398904 19 5437ft 138kts
24-Sep-18 12:58 35.092201 -119.384728 23 5456ft 138kts
24-Sep-18 12:59 35.124622 -119.364928 22 5495ft 135kts
24-Sep-18 13:00 35.156638 -119.348303 23 4839ft 129kts
24-Sep-18 13:01 35.182928 -119.334368 22 4245ft 131kts
24-Sep-18 13:02 35.207503 -119.314708 45 3657ft 130kts
24-Sep-18 13:03 35.229893 -119.286940 40 3057ft 126kts
24-Sep-18 13:04 35.253520 -119.262223 40 2554ft 121kts
24-Sep-18 13:05 35.275757 -119.237347 41 2494ft 113kts
24-Sep-18 13:06 35.298354 -119.211317 42 2394ft 111kts
24-Sep-18 13:07 35.318789 -119.186268 46 2378ft 108kts
24-Sep-18 13:08 35.334038 -119.159247 63 2217ft 106kts
24-Sep-18 13:09 35.342252 -119.132134 80 1855ft 105kts
24-Sep-18 13:10 35.348060 -119.107017 72 1582ft 98kts
24-Sep-18 13:11 35.354450 -119.083447 57 1484ft 82kts
24-Sep-18 13:12 35.364378 -119.062690 55 1591ft 83kts
24-Sep-18 13:13 35.376044 -119.044229 44 1773ft 87kts
24-Sep-18 13:14 35.389885 -119.026689 44 1758ft 82kts
24-Sep-18 13:15 35.406681 -119.023801 326 1380ft 78kts
24-Sep-18 13:16 35.419304 -119.038426 313 910ft 71kts
24-Sep-18 13:17 35.430711 -119.052381 316 579ft 71kts
24-Sep-18 13:18 35.439387 -119.062618 348 509ft 13kts
24-Sep-18 13:19 35.440372 -119.062600 44 509ft 0kts
24-Sep-18 13:20 35.440505 -119.062313 79 509ft 6kts
24-Sep-18 13:21 35.438660 -119.059783 134 509ft 21kts
24-Sep-18 13:22 35.433933 -119.054032 135 509ft 35kts
24-Sep-18 13:23 35.429926 -119.048352 71 509ft 11kts
24-Sep-18 13:24 35.429481 -119.046554 130 509ft 0kts

Navigation Log

Ident Type
Flight plan parsing failed, navigation log unavailable